Portada
METAR-TAF:

METAR-TAF

Aeroports :

Mount Pleasant Municipal Airport

Mount Pleasant, Iowa, Estats Units d'Amèrica

latitud: 40-56-48N, longitud: 091-30-40W, altitud: 224 m

Observació

L'informe es va fer fa 19 minuts, a les 12:35 UTC
Vent 10 kt del Nord-Oest amb ràfegues de 15 kt
Temperatura 5°C
Humitat 100%
Pressió 1007 hPa
Visibilitat: 11.3 km
Cel cobert a una alçada de 800 ft

METAR: KMPZ 191235Z AUTO 31010G15KT 7SM OVC008 05/05 A2974 RMK AO2

Hora: 06:54 (12:54 UTC)


TAF: manca

Observacions i pronòstics meteorològics de més de 4000 aeroports (METAR i TAF).

Les estacions disponibles són els punts grocs i vermells al mapa.

Posi el ratolí al punt desitjat per veure el nom de l'estació.

Feu clic per veure les observacions i els pronòstics meteorològics.

Per canviar el mapa: feu clic els botons verds amb una creu de color negre per apropar; al botó verd amb un guió per allunyar la imatge; o en les fletxes verdes per a mapes adjacents.


METAR-TAF: